Latest Coastal Weather Observations for Aireys Inlet

IDV60701

Issued at 9:22 pm EDT Wednesday 7 December 2022 (issued every 10 minutes, with the page automatically refreshed every 10 minutes)

About coastal observations | Map of coastal stations | Coastal observations for VIC | Marine services | Other Formats
Station Details ID: 090180 Name: AIREYS INLET Lat: -38.46 Lon: 144.09 Height: 105.0 m
Data from the previous 72 hours. | See also: Recent months at Aireys Inlet
Date/Time
EDT
Wind Sea
Height
m
Swell Vis
km
Cloud Weather Temp
°C
Press
MSL
hPa
Rain since
9am
mm
Dir  Spd
kts
Gust
kts
Height
m
Period
s
Dir
07/09:00pm WSW 16 26 - - - - - - - 11.1 - 0.2
07/08:31pm WSW 18 29 - - - - - - - 11.4 - 0.2
07/08:30pm WSW 19 29 - - - - - - - 11.4 - 0.2
07/08:00pm WSW 15 25 - - - - - - - 12.0 - 0.2
07/07:30pm SW 17 25 - - - - - - - 11.6 - 0.2
07/07:00pm WSW 17 28 - - - - - - - 13.2 - 0.0
07/06:57pm WSW 15 26 - - - - - - - 13.3 - 0.0
07/06:30pm WSW 13 21 - - - - - - - 13.8 - 0.0
07/06:00pm W 14 23 - - - - - - - 14.6 - 0.0
07/05:50pm W 15 25 - - - - - - - 15.7 - 0.0
07/05:30pm WNW 16 23 - - - - - - - 16.1 - 0.0
07/05:00pm WSW 11 19 - - - - - - - 18.6 - 0.0
07/04:30pm W 17 25 - - - - - - - 17.8 - 0.0
07/04:00pm W 15 22 - - - - - - - 18.7 - 0.0
07/03:30pm W 12 19 - - - - - - - 17.5 - 0.0
07/03:00pm W 12 19 - - - - - - - 17.4 - 0.0
07/02:36pm W 15 25 - - - - - - - 18.9 - 0.0
07/02:30pm WSW 14 23 - - - - - - - 19.0 - 0.0
07/02:16pm W 15 25 - - - - - - - 19.3 - 0.0
07/02:00pm WSW 9 16 - - - - - - - 18.7 - 0.0
07/01:30pm SSW 12 17 - - - - - - - 16.0 - 0.0
07/01:00pm SSW 11 19 - - - - - - - 17.7 - 0.0
07/12:30pm SSW 8 15 - - - - - - - 17.5 - 0.0
07/12:00pm SSW 10 15 - - - - - - - 15.9 - 0.0
07/11:30am SSW 8 13 - - - - - - - 16.1 - 0.0
07/11:00am SSW 8 15 - - - - - - - 14.9 - 0.0
07/10:30am SSW 9 13 - - - - - - - 14.7 - 0.0
07/10:00am SSW 9 15 - - - - - - - 14.4 - 0.0
07/09:30am SSW 9 13 - - - - - - - 15.8 - 0.0
07/09:00am SW 8 13 - - - - - - - 14.9 - 0.0
07/08:30am SW 6 9 - - - - - - - 14.0 - 0.0
07/08:00am SSW 8 11 - - - - - - - 13.8 - 0.0
07/07:30am SW 6 9 - - - - - - - 12.4 - 0.0
07/07:00am W 2 3 - - - - - - - 10.7 - 0.0
07/06:30am NNW 6 7 - - - - - - - 9.4 - 0.0
07/06:00am NNW 5 6 - - - - - - - 9.3 - 0.0
07/05:30am NW 5 7 - - - - - - - 9.6 - 0.0
07/05:00am NNW 6 7 - - - - - - - 9.4 - 0.0
07/04:30am NNW 5 6 - - - - - - - 9.8 - 0.0
07/04:00am NNW 5 7 - - - - - - - 9.6 - 0.0
07/03:30am NNW 5 7 - - - - - - - 9.4 - 0.0
07/03:00am NNW 5 6 - - - - - - - 9.6 - 0.0
07/02:30am NNW 5 6 - - - - - - - 10.0 - 0.0
07/02:00am NNW 4 5 - - - - - - - 10.2 - 0.0
07/01:30am NNW 4 6 - - - - - - - 10.4 - 0.0
07/01:00am NNW 4 4 - - - - - - - 10.5 - 0.0
07/12:30am NNW 3 5 - - - - - - - 10.9 - 0.0
07/12:00am CALM 0 1 - - - - - - - 11.4 - 0.0
 
Date/Time
EDT
Wind Sea
Height
m
Swell Vis
km
Cloud Weather Temp
°C
Press
MSL
hPa
Rain since
9am
mm
Dir  Spd
kts
Gust
kts
Height
m
Period
s
Dir
06/11:30pm CALM 0 0 - - - - - - - 11.7 - 0.0
06/11:00pm NNW 1 2 - - - - - - - 11.9 - 0.0
06/10:30pm E 2 4 - - - - - - - 12.4 - 0.0
06/10:00pm ESE 3 4 - - - - - - - 12.6 - 0.0
06/09:30pm SE 3 5 - - - - - - - 12.6 - 0.0
06/09:00pm SE 3 5 - - - - - - - 12.8 - 0.0
06/08:30pm SE 4 6 - - - - - - - 13.3 - 0.0
06/08:00pm SE 3 5 - - - - - - - 13.5 - 0.0
06/07:30pm SE 3 5 - - - - - - - 14.3 - 0.0
06/07:00pm SE 4 7 - - - - - - - 15.5 - 0.0
06/06:30pm SE 4 8 - - - - - - - 15.2 - 0.0
06/06:00pm SE 5 9 - - - - - - - 16.7 - 0.0
06/05:30pm SE 5 8 - - - - - - - 17.6 - 0.0
06/05:00pm SE 6 8 - - - - - - - 17.3 - 0.0
06/04:30pm SE 6 9 - - - - - - - 17.6 - 0.0
06/04:00pm SSE 5 9 - - - - - - - 18.1 - 0.0
06/03:30pm SE 6 11 - - - - - - - 17.8 - 0.0
06/03:00pm SSE 5 9 - - - - - - - 18.5 - 0.0
06/02:30pm SSE 6 9 - - - - - - - 18.4 - 0.0
06/02:00pm SSE 6 9 - - - - - - - 18.6 - 0.0
06/01:30pm SE 6 9 - - - - - - - 18.3 - 0.0
06/01:00pm SSE 6 9 - - - - - - - 18.0 - 0.0
06/12:30pm SSE 5 9 - - - - - - - 18.6 - 0.0
06/12:00pm ESE 5 9 - - - - - - - 17.6 - 0.0
06/11:30am ESE 5 9 - - - - - - - 17.7 - 0.0
06/11:00am ESE 4 8 - - - - - - - 17.2 - 0.0
06/10:30am E 6 11 - - - - - - - 16.1 - 0.0
06/10:00am E 7 11 - - - - - - - 16.2 - 0.0
06/09:30am E 6 8 - - - - - - - 15.2 - 0.0
06/09:00am ESE 7 11 - - - - - - - 14.9 - 0.6
06/08:30am SE 5 8 - - - - - - - 14.7 - 0.6
06/08:00am SE 5 10 - - - - - - - 14.1 - 0.6
06/07:30am SE 5 10 - - - - - - - 13.5 - 0.6
06/07:00am SSE 7 13 - - - - - - - 13.2 - 0.6
06/06:30am S 6 9 - - - - - - - 12.6 - 0.6
06/06:00am SW 9 13 - - - - - - Recent precip. 12.1 - 0.6
06/05:30am WSW 10 15 - - - - - - - 12.4 - 0.4
06/05:00am SW 10 14 - - - - - - - 12.5 - 0.2
06/04:30am SW 11 15 - - - - - - - 12.3 - 0.2
06/04:00am WSW 10 15 - - - - - - - 12.0 - 0.2
06/03:30am WSW 12 17 - - - - - - - 11.9 - 0.2
06/03:00am WSW 12 17 - - - - - - - 11.5 - 0.2
06/02:30am WSW 12 18 - - - - - - - 11.5 - 0.2
06/02:00am WSW 12 19 - - - - - - - 11.9 - 0.2
06/01:30am SW 14 21 - - - - - - - 12.2 - 0.2
06/01:00am SW 14 20 - - - - - - - 11.9 - 0.2
06/12:30am SSW 13 21 - - - - - - - 12.1 - 0.2
06/12:00am SSW 15 21 - - - - - - - 12.1 - 0.2
 
Date/Time
EDT
Wind Sea
Height
m
Swell Vis
km
Cloud Weather Temp
°C
Press
MSL
hPa
Rain since
9am
mm
Dir  Spd
kts
Gust
kts
Height
m
Period
s
Dir
05/11:30pm SSW 15 25 - - - - - - - 12.4 - 0.2
05/11:00pm SSW 16 25 - - - - - - - 12.3 - 0.2
05/10:53pm SSW 15 25 - - - - - - - 12.7 - 0.2
05/10:30pm SSW 16 24 - - - - - - - 12.7 - 0.2
05/10:00pm SSW 16 27 - - - - - - - 12.7 - 0.2
05/09:30pm SSW 16 29 - - - - - - - 12.8 - 0.2
05/09:02pm SW 17 28 - - - - - - - 12.9 - 0.2
05/09:00pm SW 18 28 - - - - - - - 12.9 - 0.2
05/08:30pm SW 19 31 - - - - - - - 12.9 - 0.2
05/08:00pm SSW 19 30 - - - - - - - 12.9 - 0.2
05/07:33pm SW 20 33 - - - - - - - 13.2 - 0.2
05/07:30pm SW 20 29 - - - - - - - 13.1 - 0.2
05/07:00pm SW 19 31 - - - - - - - 13.2 - 0.2
05/06:42pm SW 18 28 - - - - - - - 12.9 - 0.2
05/06:30pm SW 19 28 - - - - - - - 12.9 - 0.2
05/06:14pm SW 18 29 - - - - - - - 13.5 - 0.2
05/06:00pm SW 18 27 - - - - - - - 13.5 - 0.2
05/05:31pm SW 20 30 - - - - - - - 13.4 - 0.2
05/05:30pm SW 21 30 - - - - - - - 13.4 - 0.2
05/05:00pm SW 22 32 - - - - - - - 12.9 - 0.2
05/04:31pm SW 20 30 - - - - - - - 13.9 - 0.0
05/04:30pm SW 21 30 - - - - - - - 13.9 - 0.0
05/04:02pm SW 21 33 - - - - - - - 14.5 - 0.0
05/04:00pm SW 20 30 - - - - - - - 14.3 - 0.0
05/03:42pm SW 20 35 - - - - - - - 14.3 - 0.0
05/03:30pm SW 20 30 - - - - - - - 14.1 - 0.0
05/03:00pm SW 20 32 - - - - - - - 14.1 - 0.0
05/02:30pm SW 22 32 - - - - - - - 14.1 - 0.0
05/02:05pm SW 20 31 - - - - - - - 14.1 - 0.0
05/02:00pm SW 22 31 - - - - - - - 13.8 - 0.0
05/01:30pm SW 21 34 - - - - - - - 14.6 - 0.0
05/01:00pm SW 21 31 - - - - - - - 14.5 - 0.0
05/12:34pm SW 18 30 - - - - - - - 14.3 - 0.0
05/12:30pm SW 18 26 - - - - - - - 14.0 - 0.0
05/12:00pm SW 18 29 - - - - - - - 13.8 - 0.0
05/11:30am SW 17 28 - - - - - - - 14.6 - 0.0
05/11:27am SW 18 29 - - - - - - - 14.4 - 0.0
05/11:00am SW 20 28 - - - - - - - 14.3 - 0.0
05/10:30am SW 21 33 - - - - - - - 14.2 - 0.0
05/10:00am SW 21 31 - - - - - - - 14.0 - 0.0
05/09:30am SW 20 32 - - - - - - - 14.3 - 0.0
05/09:00am SW 21 34 - - - - - - - 14.0 - 0.6
05/08:30am SW 19 30 - - - - - - - 13.6 - 0.6
05/08:01am SW 21 34 - - - - - - - 14.2 - 0.6
05/08:00am SW 21 31 - - - - - - - 14.2 - 0.6
05/07:34am SSW 20 30 - - - - - - - 13.8 - 0.6
05/07:30am SSW 20 30 - - - - - - - 13.7 - 0.6
05/07:01am SW 19 30 - - - - - - - 13.6 - 0.6
05/07:00am SW 19 28 - - - - - - - 13.6 - 0.6
05/06:38am SW 16 27 - - - - - - - 13.2 - 0.6
05/06:30am SW 18 27 - - - - - - - 13.3 - 0.6
05/06:07am SW 16 26 - - - - - - - 13.7 - 0.4
05/06:00am SW 17 26 - - - - - - Rain 13.7 - 0.2
05/05:31am SW 16 26 - - - - - - - 14.3 - 0.0
05/05:30am SW 16 25 - - - - - - - 14.2 - 0.0
05/05:00am SW 17 29 - - - - - - - 14.9 - 0.0
05/04:56am SW 18 29 - - - - - - - 14.9 - 0.0
05/04:30am SW 15 24 - - - - - - - 15.2 - 0.0
05/04:00am SW 10 20 - - - - - - - 15.9 - 0.0
05/03:30am WSW 7 9 - - - - - - - 16.7 - 0.0
05/03:00am W 5 7 - - - - - - - 16.6 - 0.0
05/02:30am W 10 16 - - - - - - - 16.5 - 0.0
05/02:00am W 14 20 - - - - - - - 16.5 - 0.0
05/01:30am NW 2 3 - - - - - - - 16.1 - 0.0
05/01:00am SW 4 9 - - - - - - - 16.1 - 0.0
05/12:30am SW 10 15 - - - - - - - 16.3 - 0.0
05/12:00am SW 14 21 - - - - - - - 16.7 - 0.0
 
Date/Time
EDT
Wind Sea
Height
m
Swell Vis
km
Cloud Weather Temp
°C
Press
MSL
hPa
Rain since
9am
mm
Dir  Spd
kts
Gust
kts
Height
m
Period
s
Dir
04/11:30pm SW 13 20 - - - - - - - 17.3 - 0.0
04/11:00pm SW 6 11 - - - - - - - 18.8 - 0.0
04/10:30pm SW 5 7 - - - - - - - 20.1 - 0.0
04/10:00pm SW 10 13 - - - - - - - 19.4 - 0.0
04/09:30pm SW 11 19 - - - - - - - 20.5 - 0.0

Other formats

Comma delimited format used in spreadsheet applications
http://www.bom.gov.au/fwo/IDV60701/IDV60701.94846.axf

JavaScript Object Notation format (JSON) in row-major order
http://www.bom.gov.au/fwo/IDV60701/IDV60701.94846.json

Data quality

Most of these data are generated automatically and are frequently updated. Quality checks on data are not normally performed. It is possible for incorrect values to appear. Refer to information at About Latest Weather Observations and please check the disclaimer before using these data.